Time;durP1;ratioP1;P1;durP2;ratioP2;P2;SDS_P1;SDS_P2;PMS_P1;PMS_P2;Temp;Humidity;BMP_temperature;BMP_pressure;BME280_temperature;BME280_humidity;BME280_pressure;Samples;Min_cycle;Max_cycle;Signal;HPM_P1;HPM_P2
2023/06/13 00:00:09;;;;;;;10.13;4.45;;;16.80;99.90;;;;;;5050307;28;20226;-83
2023/06/13 00:02:37;;;;;;;5.65;3.88;;;16.80;99.90;;;;;;5043784;28;20395;-83
2023/06/13 00:05:10;;;;;;;5.65;4.18;;;16.70;99.90;;;;;;5047877;28;20066;-83
2023/06/13 00:07:37;;;;;;;6.50;3.92;;;16.80;99.90;;;;;;5057301;28;20097;-83
2023/06/13 00:10:09;;;;;;;9.52;4.10;;;16.70;99.90;;;;;;5056437;28;20540;-83
2023/06/13 00:12:36;;;;;;;7.50;4.03;;;16.70;99.90;;;;;;5056306;28;20105;-83
2023/06/13 00:15:06;;;;;;;9.60;4.20;;;16.70;99.90;;;;;;5049748;28;20430;-83
2023/06/13 00:17:32;;;;;;;8.00;3.70;;;16.60;99.90;;;;;;5048175;28;20047;-82
2023/06/13 00:20:03;;;;;;;9.20;3.90;;;16.60;99.90;;;;;;5049091;28;20043;-83
2023/06/13 00:22:29;;;;;;;5.90;4.28;;;16.60;99.90;;;;;;5053958;28;20048;-83
2023/06/13 00:24:55;;;;;;;6.25;3.83;;;16.50;99.90;;;;;;5059617;28;20036;-83
2023/06/13 00:27:20;;;;;;;5.00;3.50;;;16.40;99.90;;;;;;5040700;28;20052;-83
2023/06/13 00:29:46;;;;;;;6.57;3.90;;;16.40;99.90;;;;;;5046592;28;20044;-83
2023/06/13 00:32:12;;;;;;;7.47;3.92;;;16.40;99.90;;;;;;5056309;28;20040;-83
2023/06/13 00:34:43;;;;;;;6.60;3.97;;;16.50;1.00;;;;;;5047480;28;20505;-83
2023/06/13 00:37:09;;;;;;;6.13;3.80;;;16.60;99.90;;;;;;5044328;28;20039;-83
2023/06/13 00:39:38;;;;;;;6.95;3.80;;;16.50;99.90;;;;;;5043851;28;20056;-84
2023/06/13 00:42:06;;;;;;;5.03;3.78;;;16.50;99.90;;;;;;5042322;28;20487;-83
2023/06/13 00:44:32;;;;;;;8.43;4.85;;;16.50;99.90;;;;;;5043577;28;20032;-83
2023/06/13 00:47:00;;;;;;;5.63;4.00;;;16.50;99.90;;;;;;5048459;28;20367;-83
2023/06/13 00:49:26;;;;;;;4.60;3.75;;;16.50;1.00;;;;;;5044115;28;20389;-83
2023/06/13 00:51:54;;;;;;;6.93;4.20;;;16.40;1.00;;;;;;5041412;28;20043;-83
2023/06/13 00:54:21;;;;;;;6.75;3.92;;;16.40;1.00;;;;;;5057278;28;20483;-83
2023/06/13 00:56:48;;;;;;;8.32;4.35;;;16.40;1.00;;;;;;5053059;28;20521;-83
2023/06/13 00:59:15;;;;;;;4.68;3.72;;;16.40;1.00;;;;;;5063398;28;20316;-83
2023/06/13 01:01:42;;;;;;;5.55;4.13;;;16.30;1.00;;;;;;5044948;28;20040;-83
2023/06/13 01:04:08;;;;;;;9.18;3.92;;;16.30;1.00;;;;;;5047382;28;20044;-83
2023/06/13 01:06:40;;;;;;;6.10;3.95;;;16.20;1.00;;;;;;5048634;28;20039;-83
2023/06/13 01:09:07;;;;;;;6.07;4.10;;;16.10;1.00;;;;;;5045587;28;20044;-83
2023/06/13 01:11:57;;;;;;;6.25;4.13;;;16.10;1.00;;;;;;5045745;28;20105;-83
2023/06/13 01:14:44;;;;;;;6.00;4.20;;;16.00;1.00;;;;;;5053428;28;20044;-83
2023/06/13 01:17:18;;;;;;;7.88;3.80;;;15.90;37.50;;;;;;5046465;28;20048;-83
2023/06/13 01:19:53;;;;;;;7.25;4.32;;;16.00;17.70;;;;;;5041600;28;20048;-83
2023/06/13 01:22:42;;;;;;;;;;;15.90;90.00;;;;;;5055610;28;20047;-83
2023/06/13 01:25:45;;;;;;;5.90;4.18;;;15.90;89.30;;;;;;5077064;28;20271;-83
2023/06/13 01:28:13;;;;;;;6.20;4.07;;;15.80;75.00;;;;;;5060359;28;20040;-83
2023/06/13 01:30:40;;;;;;;7.45;4.28;;;15.80;68.20;;;;;;5040775;28;20036;-84
2023/06/13 01:33:07;;;;;;;5.65;4.18;;;15.70;72.10;;;;;;5039100;28;20507;-83
2023/06/13 01:35:33;;;;;;;7.60;4.63;;;15.60;97.80;;;;;;5061363;28;20090;-83
2023/06/13 01:37:59;;;;;;;10.20;4.57;;;15.60;99.90;;;;;;5043752;28;20039;-83
2023/06/13 01:40:25;;;;;;;7.40;4.55;;;15.50;99.90;;;;;;5052350;28;20487;-83
2023/06/13 01:42:50;;;;;;;7.60;4.70;;;15.50;99.90;;;;;;5043717;28;20555;-83
2023/06/13 01:45:16;;;;;;;8.25;4.35;;;15.40;99.90;;;;;;5076622;28;20463;-83
2023/06/13 01:47:59;;;;;;;7.47;4.18;;;15.50;99.90;;;;;;5055537;28;20034;-83
2023/06/13 01:50:32;;;;;;;6.93;4.50;;;15.40;99.90;;;;;;5044640;28;20135;-83
2023/06/13 01:53:12;;;;;;;7.05;4.68;;;15.40;99.90;;;;;;5055146;28;20067;-83
2023/06/13 01:55:47;;;;;;;6.40;4.38;;;15.30;99.90;;;;;;5036258;28;20043;-83
2023/06/13 01:58:21;;;;;;;7.00;4.85;;;15.20;1.00;;;;;;5038903;28;20039;-83
2023/06/13 02:00:50;;;;;;;7.95;4.82;;;15.20;1.00;;;;;;5053271;28;20158;-83
2023/06/13 02:03:17;;;;;;;6.72;4.63;;;15.10;1.00;;;;;;5051269;28;20028;-83
2023/06/13 02:05:43;;;;;;;10.77;4.78;;;15.00;99.90;;;;;;5043922;28;20088;-83
2023/06/13 02:08:08;;;;;;;6.50;4.60;;;15.00;90.30;;;;;;5056209;28;20047;-83
2023/06/13 02:10:34;;;;;;;7.43;4.97;;;14.90;99.90;;;;;;5040642;28;20047;-83
2023/06/13 02:13:00;;;;;;;6.50;4.55;;;14.80;84.50;;;;;;5044195;28;20083;-83
2023/06/13 02:15:28;;;;;;;5.32;4.38;;;14.80;93.10;;;;;;5056383;28;20070;-83
2023/06/13 02:17:55;;;;;;;6.32;4.82;;;14.80;99.90;;;;;;5041612;28;20951;-83
2023/06/13 02:20:20;;;;;;;7.47;4.95;;;14.70;99.90;;;;;;5061503;28;20061;-83
2023/06/13 02:22:46;;;;;;;9.88;5.13;;;14.70;99.90;;;;;;5044823;28;20033;-83
2023/06/13 02:25:12;;;;;;;10.55;4.90;;;14.70;99.90;;;;;;5056509;28;20032;-83
2023/06/13 02:27:39;;;;;;;7.35;5.18;;;14.60;99.90;;;;;;5043012;28;20135;-82
2023/06/13 02:30:07;;;;;;;6.78;4.70;;;14.50;1.00;;;;;;5057960;28;20052;-83
2023/06/13 02:32:33;;;;;;;11.98;5.28;;;14.50;99.90;;;;;;5069985;28;20068;-83
2023/06/13 02:34:59;;;;;;;6.25;4.75;;;14.40;99.90;;;;;;5046458;28;20083;-83
2023/06/13 02:37:24;;;;;;;8.20;4.95;;;14.40;99.90;;;;;;5054264;28;20193;-83
2023/06/13 02:39:50;;;;;;;7.93;4.95;;;14.40;99.90;;;;;;5054569;28;20171;-83
2023/06/13 02:42:16;;;;;;;8.60;4.47;;;14.40;99.90;;;;;;5043004;28;20123;-82
2023/06/13 02:44:41;;;;;;;9.35;5.22;;;14.30;1.00;;;;;;5043505;28;20200;-82
2023/06/13 02:47:07;;;;;;;6.85;5.10;;;14.30;99.90;;;;;;5047656;28;20033;-82
2023/06/13 02:49:33;;;;;;;6.80;5.10;;;14.20;99.90;;;;;;5043500;28;20044;-83
2023/06/13 02:52:02;;;;;;;10.98;5.18;;;14.10;99.90;;;;;;5043620;28;20109;-83
2023/06/13 02:54:27;;;;;;;9.30;5.32;;;14.10;99.90;;;;;;5056753;28;20044;-83
2023/06/13 02:56:53;;;;;;;9.98;4.93;;;14.10;99.90;;;;;;5047640;28;20352;-83
2023/06/13 02:59:19;;;;;;;11.18;5.10;;;14.10;99.90;;;;;;5062076;28;20411;-82
2023/06/13 03:01:45;;;;;;;8.10;4.40;;;14.00;99.90;;;;;;5043087;28;20040;-83
2023/06/13 03:04:11;;;;;;;6.78;4.28;;;14.00;18.30;;;;;;5045692;28;20429;-83
2023/06/13 03:06:40;;;;;;;7.53;4.80;;;14.00;31.00;;;;;;5057662;28;20044;-83
2023/06/13 03:09:07;;;;;;;6.57;4.88;;;13.90;93.70;;;;;;5036883;28;20124;-83
2023/06/13 03:11:33;;;;;;;8.43;4.80;;;13.90;99.90;;;;;;5041875;28;20656;-82
2023/06/13 03:13:58;;;;;;;10.10;4.68;;;13.90;99.90;;;;;;5041615;28;20046;-83
2023/06/13 03:16:24;;;;;;;7.72;4.70;;;13.90;99.90;;;;;;5048851;28;20062;-83
2023/06/13 03:18:50;;;;;;;7.78;5.22;;;13.90;1.00;;;;;;5046969;28;20458;-82
2023/06/13 03:21:15;;;;;;;9.60;5.05;;;13.90;1.00;;;;;;5048338;28;20078;-83
2023/06/13 03:23:41;;;;;;;5.68;4.68;;;13.90;99.90;;;;;;5045161;28;20367;-83
2023/06/13 03:26:09;;;;;;;7.57;4.80;;;13.90;1.00;;;;;;5057489;28;20044;-83
2023/06/13 03:28:35;;;;;;;5.20;4.25;;;13.90;99.90;;;;;;5053653;28;20047;-83
2023/06/13 03:31:01;;;;;;;6.05;4.55;;;13.90;99.90;;;;;;5040739;28;20036;-83
2023/06/13 03:33:26;;;;;;;8.75;4.85;;;13.90;89.70;;;;;;5049597;28;20072;-83
2023/06/13 03:35:52;;;;;;;5.25;4.53;;;14.00;99.90;;;;;;5061961;28;20393;-83
2023/06/13 03:38:21;;;;;;;7.82;4.93;;;14.00;99.90;;;;;;5088375;28;20056;-82
2023/06/13 03:40:47;;;;;;;10.00;4.80;;;14.00;99.90;;;;;;5057034;28;20467;-83
2023/06/13 03:43:12;;;;;;;8.82;5.07;;;14.00;1.00;;;;;;5058143;28;20039;-83
2023/06/13 03:45:38;;;;;;;9.77;4.78;;;14.00;1.00;;;;;;5048795;28;20036;-83
2023/06/13 03:48:04;;;;;;;7.07;5.18;;;14.00;99.90;;;;;;5060387;28;20028;-82
2023/06/13 03:50:30;;;;;;;5.80;4.57;;;14.00;99.90;;;;;;5050479;28;20035;-83
2023/06/13 03:52:55;;;;;;;10.13;4.82;;;14.10;1.00;;;;;;5044841;28;20088;-83
2023/06/13 03:55:23;;;;;;;6.80;4.80;;;14.20;1.00;;;;;;5042434;28;20093;-82
2023/06/13 03:57:52;;;;;;;6.28;4.65;;;14.20;99.90;;;;;;5041570;28;20079;-82
2023/06/13 04:00:18;;;;;;;10.93;4.82;;;14.20;99.90;;;;;;5043452;28;20040;-83
2023/06/13 04:02:45;;;;;;;6.13;4.72;;;14.30;99.90;;;;;;5064619;28;20035;-83
2023/06/13 04:05:13;;;;;;;7.10;5.18;;;14.30;1.00;;;;;;5047998;28;20418;-81
2023/06/13 04:07:39;;;;;;;6.47;4.90;;;14.40;1.00;;;;;;5039290;28;20114;-83
2023/06/13 04:10:05;;;;;;;6.78;4.88;;;14.50;99.90;;;;;;5051605;28;20268;-83
2023/06/13 04:12:31;;;;;;;6.45;4.43;;;14.60;99.90;;;;;;5060626;28;20040;-83
2023/06/13 04:14:57;;;;;;;6.57;4.72;;;14.60;99.90;;;;;;5059761;28;20032;-83
2023/06/13 04:17:23;;;;;;;6.60;4.85;;;14.70;99.90;;;;;;5045237;28;20070;-83
2023/06/13 04:19:48;;;;;;;6.22;4.78;;;14.80;99.90;;;;;;5048197;28;20040;-82
2023/06/13 04:22:16;;;;;;;5.95;4.53;;;14.90;99.90;;;;;;5043795;28;20040;-83
2023/06/13 04:24:43;;;;;;;8.73;4.88;;;15.00;1.00;;;;;;5042519;28;20033;-83
2023/06/13 04:27:13;;;;;;;6.18;4.50;;;15.10;99.90;;;;;;5042503;28;20066;-83
2023/06/13 04:29:40;;;;;;;7.68;5.03;;;15.20;99.90;;;;;;5061183;28;20187;-82
2023/06/13 04:32:07;;;;;;;5.50;4.53;;;15.30;99.90;;;;;;5041194;28;20040;-83
2023/06/13 04:34:36;;;;;;;7.75;4.45;;;15.40;99.90;;;;;;5042240;28;20047;-83
2023/06/13 04:37:03;;;;;;;9.35;4.90;;;15.50;11.10;;;;;;5054088;28;20145;-82
2023/06/13 04:39:29;;;;;;;5.90;4.70;;;15.50;1.00;;;;;;5051726;28;20064;-82
2023/06/13 04:41:55;;;;;;;6.68;4.82;;;15.60;1.00;;;;;;5047086;28;20520;-83
2023/06/13 04:44:27;;;;;;;7.97;4.60;;;15.70;99.90;;;;;;5064560;28;20111;-83
2023/06/13 04:46:57;;;;;;;7.47;4.72;;;15.80;97.30;;;;;;5044777;28;20579;-83
2023/06/13 04:49:27;;;;;;;8.77;4.38;;;15.80;1.00;;;;;;5044799;28;20086;-83
2023/06/13 04:51:54;;;;;;;6.60;4.72;;;15.90;1.00;;;;;;5043492;28;20142;-83
2023/06/13 04:54:23;;;;;;;6.40;4.85;;;16.10;1.00;;;;;;5061381;28;20127;-83
2023/06/13 04:56:49;;;;;;;5.95;4.97;;;16.10;1.00;;;;;;5043656;28;20035;-83
2023/06/13 04:59:15;;;;;;;5.70;4.80;;;16.10;1.00;;;;;;5070392;28;20055;-83
2023/06/13 05:01:43;;;;;;;6.20;4.75;;;16.20;99.90;;;;;;5048791;28;20063;-83
2023/06/13 05:04:09;;;;;;;6.82;4.55;;;16.20;99.90;;;;;;5047849;28;20036;-83
2023/06/13 05:06:37;;;;;;;7.40;4.60;;;16.30;99.90;;;;;;5054232;28;20409;-83
2023/06/13 05:09:03;;;;;;;7.25;4.30;;;16.40;1.00;;;;;;5058713;28;20533;-83
2023/06/13 05:11:28;;;;;;;7.32;4.47;;;16.50;1.00;;;;;;5047674;28;20040;-82
2023/06/13 05:13:54;;;;;;;6.55;4.72;;;16.50;1.00;;;;;;5047509;28;20185;-83
2023/06/13 05:16:22;;;;;;;8.10;4.72;;;16.60;99.90;;;;;;5056057;28;20123;-83
2023/06/13 05:18:49;;;;;;;5.68;4.30;;;16.70;99.90;;;;;;5057961;28;20054;-83
2023/06/13 05:21:16;;;;;;;8.45;4.60;;;16.80;99.90;;;;;;5040551;28;20048;-83
2023/06/13 05:23:44;;;;;;;6.75;4.20;;;16.90;99.90;;;;;;5045986;28;20634;-83
2023/06/13 05:26:10;;;;;;;7.90;4.22;;;17.00;99.90;;;;;;5048689;28;20047;-83
2023/06/13 05:28:36;;;;;;;6.97;4.18;;;17.00;99.90;;;;;;5046757;28;20040;-83
2023/06/13 05:31:02;;;;;;;8.93;4.18;;;17.00;99.90;;;;;;5057872;28;20079;-83
2023/06/13 05:33:28;;;;;;;11.10;4.18;;;17.10;56.40;;;;;;5055061;28;20043;-83
2023/06/13 05:35:53;;;;;;;9.40;3.88;;;17.20;86.20;;;;;;5036310;28;20140;-83
2023/06/13 05:38:19;;;;;;;5.95;3.65;;;17.20;82.50;;;;;;5047294;28;20505;-83
2023/06/13 05:40:44;;;;;;;5.95;4.20;;;17.30;7.80;;;;;;5042236;28;20506;-84
2023/06/13 05:43:19;;;;;;;8.25;4.30;;;17.30;1.00;;;;;;5056278;28;20040;-83
2023/06/13 05:45:45;;;;;;;4.82;3.75;;;17.50;1.00;;;;;;5065954;28;21278;-83
2023/06/13 05:48:11;;;;;;;7.25;3.80;;;17.50;1.00;;;;;;5038193;28;20060;-83
2023/06/13 05:50:37;;;;;;;7.40;3.92;;;17.60;1.00;;;;;;5044615;28;20035;-83
2023/06/13 05:53:03;;;;;;;6.13;3.75;;;17.60;99.90;;;;;;5041580;28;20616;-83
2023/06/13 05:55:28;;;;;;;6.78;3.63;;;17.70;99.90;;;;;;5056805;28;20067;-82
2023/06/13 05:57:54;;;;;;;6.07;3.90;;;17.80;99.90;;;;;;5041427;28;20501;-83
2023/06/13 06:00:19;;;;;;;5.03;3.80;;;17.90;99.90;;;;;;5044722;28;20036;-83
2023/06/13 06:02:50;;;;;;;6.72;3.58;;;18.00;99.90;;;;;;5041590;28;20113;-83
2023/06/13 06:05:19;;;;;;;6.22;3.20;;;18.10;99.90;;;;;;5054587;28;20052;-83
2023/06/13 06:07:45;;;;;;;4.15;3.45;;;18.20;99.90;;;;;;5044584;28;20364;-83
2023/06/13 06:10:11;;;;;;;6.97;3.65;;;18.20;99.90;;;;;;5044198;28;20370;-83
2023/06/13 06:12:37;;;;;;;7.53;3.60;;;18.20;99.90;;;;;;5043325;28;20040;-82
2023/06/13 06:15:04;;;;;;;11.57;3.75;;;18.40;99.90;;;;;;5052608;28;20082;-82
2023/06/13 06:17:30;;;;;;;8.20;3.70;;;18.50;99.90;;;;;;5045688;28;20534;-83
2023/06/13 06:19:55;;;;;;;7.38;3.33;;;18.60;99.90;;;;;;5058709;28;20131;-83
2023/06/13 06:22:21;;;;;;;4.63;3.40;;;18.70;99.90;;;;;;5043566;28;20554;-83
2023/06/13 06:24:47;;;;;;;5.38;3.38;;;18.80;99.90;;;;;;5053496;28;20035;-83
2023/06/13 06:27:13;;;;;;;4.63;3.15;;;19.00;99.90;;;;;;5056557;28;20517;-83
2023/06/13 06:29:43;;;;;;;5.75;3.45;;;19.10;99.90;;;;;;5064219;28;20105;-83
2023/06/13 06:32:10;;;;;;;4.53;3.25;;;19.20;99.90;;;;;;5048327;28;20070;-83
2023/06/13 06:34:36;;;;;;;6.00;3.30;;;19.30;99.90;;;;;;5044929;28;20035;-83
2023/06/13 06:37:04;;;;;;;5.20;3.40;;;19.40;99.90;;;;;;5066288;28;20042;-83
2023/06/13 06:39:30;;;;;;;4.90;3.33;;;19.50;99.90;;;;;;5061689;28;20086;-83
2023/06/13 06:41:56;;;;;;;7.93;3.50;;;19.50;99.90;;;;;;5048423;28;20044;-83
2023/06/13 06:44:22;;;;;;;4.20;3.10;;;19.50;99.90;;;;;;5043284;28;20468;-82
2023/06/13 06:46:47;;;;;;;6.00;3.38;;;19.70;99.90;;;;;;5043306;28;20028;-83
2023/06/13 06:49:13;;;;;;;5.45;3.22;;;19.80;99.90;;;;;;5048563;28;20115;-83
2023/06/13 06:51:38;;;;;;;5.63;3.10;;;19.80;99.90;;;;;;5057853;28;20320;-83
2023/06/13 06:54:04;;;;;;;6.03;3.45;;;19.80;99.90;;;;;;5062932;28;20113;-83
2023/06/13 06:56:30;;;;;;;4.13;2.78;;;19.90;99.90;;;;;;5044706;28;20039;-83
2023/06/13 06:58:55;;;;;;;5.57;3.20;;;20.10;99.90;;;;;;5047456;28;20051;-83
2023/06/13 07:01:21;;;;;;;5.82;2.95;;;20.00;99.90;;;;;;5041746;28;20509;-83
2023/06/13 07:03:46;;;;;;;4.72;3.47;;;20.20;99.90;;;;;;5045424;28;20184;-83
2023/06/13 07:06:12;;;;;;;5.47;3.30;;;20.30;99.90;;;;;;5059361;28;20089;-83
2023/06/13 07:08:38;;;;;;;4.50;3.03;;;20.40;99.90;;;;;;5061433;28;20570;-83
2023/06/13 07:11:04;;;;;;;7.22;3.10;;;20.50;99.90;;;;;;5047015;28;20075;-83
2023/06/13 07:13:31;;;;;;;5.05;2.97;;;20.60;99.90;;;;;;5048315;28;20595;-82
2023/06/13 07:15:57;;;;;;;6.05;3.35;;;20.50;99.90;;;;;;5060404;28;20131;-83
2023/06/13 07:18:23;;;;;;;7.00;3.05;;;20.70;99.90;;;;;;5046545;28;20039;-83
2023/06/13 07:20:48;;;;;;;4.20;3.10;;;20.80;99.90;;;;;;5078067;28;20503;-82
2023/06/13 07:23:14;;;;;;;8.40;2.85;;;21.00;99.90;;;;;;5044949;28;20037;-83
2023/06/13 07:25:42;;;;;;;6.70;2.70;;;21.10;99.90;;;;;;5054877;28;20036;-83
2023/06/13 07:28:09;;;;;;;5.15;3.17;;;21.10;99.90;;;;;;5047170;28;20040;-83
2023/06/13 07:30:35;;;;;;;4.43;3.10;;;21.10;99.90;;;;;;5044390;28;20101;-83
2023/06/13 07:33:01;;;;;;;5.30;3.05;;;21.10;99.90;;;;;;5063152;28;20044;-83
2023/06/13 07:35:27;;;;;;;3.53;2.70;;;21.30;99.90;;;;;;5057895;28;20044;-83
2023/06/13 07:37:54;;;;;;;5.78;2.90;;;21.30;99.90;;;;;;5056051;28;20076;-83
2023/06/13 07:40:21;;;;;;;3.90;2.53;;;21.70;99.90;;;;;;5061421;28;20127;-83
2023/06/13 07:42:51;;;;;;;5.30;2.83;;;21.70;99.90;;;;;;5058669;28;20128;-83
2023/06/13 07:45:17;;;;;;;4.82;3.08;;;21.80;99.90;;;;;;5043434;28;20278;-83
2023/06/13 07:47:43;;;;;;;3.90;2.50;;;21.90;99.90;;;;;;5044094;28;20032;-83
2023/06/13 07:50:09;;;;;;;6.65;3.10;;;22.00;99.90;;;;;;5047335;28;20105;-83
2023/06/13 07:52:35;;;;;;;11.07;3.25;;;22.10;99.90;;;;;;5041049;28;20036;-83
2023/06/13 07:55:00;;;;;;;6.93;2.97;;;22.20;99.90;;;;;;5043935;28;20036;-83
2023/06/13 07:57:26;;;;;;;3.72;2.70;;;22.30;99.90;;;;;;5046032;28;20043;-83
2023/06/13 07:59:54;;;;;;;7.25;2.90;;;22.40;99.90;;;;;;5054755;28;20115;-83
2023/06/13 08:02:20;;;;;;;5.05;2.70;;;22.50;99.90;;;;;;5042751;28;20090;-83
2023/06/13 08:04:45;;;;;;;4.97;2.80;;;22.50;99.90;;;;;;5038135;28;20040;-83
2023/06/13 08:07:12;;;;;;;5.95;2.50;;;22.60;99.90;;;;;;5041838;28;20033;-83
2023/06/13 08:09:37;;;;;;;4.80;2.50;;;22.70;99.90;;;;;;5038796;28;20043;-83
2023/06/13 08:12:03;;;;;;;6.05;2.65;;;22.80;99.90;;;;;;5060561;28;20039;-83
2023/06/13 08:14:28;;;;;;;4.65;2.78;;;22.80;99.90;;;;;;5047450;28;20039;-82
2023/06/13 08:16:54;;;;;;;5.22;2.60;;;22.80;99.90;;;;;;5055030;28;20040;-82
2023/06/13 08:19:23;;;;;;;4.93;2.45;;;23.10;99.90;;;;;;5049303;28;20039;-83
2023/06/13 08:21:48;;;;;;;5.18;2.60;;;23.20;99.90;;;;;;5055115;28;20040;-82
2023/06/13 08:24:14;;;;;;;8.05;2.60;;;23.40;99.90;;;;;;5037438;28;20043;-82
2023/06/13 08:26:40;;;;;;;3.95;2.75;;;23.50;99.90;;;;;;5059062;28;20111;-83
2023/06/13 08:29:06;;;;;;;5.25;2.92;;;23.50;99.90;;;;;;5046682;28;20147;-82
2023/06/13 08:31:32;;;;;;;4.18;2.45;;;23.80;99.90;;;;;;5060085;28;20094;-83
2023/06/13 08:33:59;;;;;;;6.25;2.72;;;23.80;99.90;;;;;;5056517;28;20048;-83
2023/06/13 08:36:28;;;;;;;3.95;2.70;;;23.90;99.90;;;;;;5047489;28;20171;-83
2023/06/13 08:38:57;;;;;;;3.97;2.97;;;24.10;99.90;;;;;;5045049;28;20052;-83
2023/06/13 08:41:25;;;;;;;5.28;3.00;;;24.00;99.90;;;;;;5046449;28;20039;-82
2023/06/13 08:43:52;;;;;;;10.30;3.08;;;24.00;99.90;;;;;;5062805;28;20036;-82
2023/06/13 08:46:18;;;;;;;8.40;3.22;;;24.10;99.90;;;;;;5057100;28;20089;-83
2023/06/13 08:48:43;;;;;;;5.03;3.00;;;24.00;99.90;;;;;;5038329;28;20040;-82
2023/06/13 08:51:15;;;;;;;5.95;3.60;;;23.90;99.90;;;;;;5046348;28;20171;-83
2023/06/13 08:53:49;;;;;;;3.95;2.78;;;24.20;99.90;;;;;;5045757;28;20147;-83
2023/06/13 08:56:21;;;;;;;5.57;3.00;;;24.40;99.90;;;;;;5046714;28;20097;-83
2023/06/13 08:58:51;;;;;;;6.10;2.80;;;23.70;99.90;;;;;;5056725;28;20045;-82
2023/06/13 09:01:17;;;;;;;5.82;2.92;;;24.20;99.90;;;;;;5046751;28;20136;-83
2023/06/13 09:03:44;;;;;;;6.40;3.28;;;24.50;99.90;;;;;;5053798;28;20142;-82
2023/06/13 09:06:11;;;;;;;6.05;3.40;;;24.40;99.90;;;;;;5052195;28;20064;-82
2023/06/13 09:08:37;;;;;;;4.05;3.38;;;24.50;99.90;;;;;;5040390;28;20336;-83
2023/06/13 09:11:04;;;;;;;6.82;3.25;;;24.70;99.90;;;;;;5052678;28;20495;-82
2023/06/13 09:13:32;;;;;;;6.07;3.28;;;24.80;99.90;;;;;;5041893;28;20040;-83
2023/06/13 09:15:58;;;;;;;4.97;3.42;;;24.90;99.90;;;;;;5053410;28;20044;-83
2023/06/13 09:18:26;;;;;;;6.78;3.40;;;24.90;99.90;;;;;;5043443;28;20037;-83
2023/06/13 09:20:51;;;;;;;4.18;3.03;;;25.00;99.90;;;;;;5055552;28;20515;-82
2023/06/13 09:23:17;;;;;;;6.10;3.45;;;25.10;99.90;;;;;;5045328;28;20032;-82
2023/06/13 09:25:46;;;;;;;4.20;3.20;;;25.00;99.90;;;;;;5044573;28;20367;-83
2023/06/13 09:28:31;;;;;;;4.07;3.30;;;25.40;99.90;;;;;;5044514;28;20156;-82
2023/06/13 09:30:57;;;;;;;5.93;2.90;;;25.40;99.90;;;;;;5048597;28;20046;-82
2023/06/13 09:33:23;;;;;;;4.28;3.20;;;25.40;99.90;;;;;;5045877;28;20398;-82
2023/06/13 09:35:50;;;;;;;4.57;3.03;;;25.30;99.90;;;;;;5044097;28;20044;-82
2023/06/13 09:38:25;;;;;;;5.18;3.20;;;25.40;99.90;;;;;;5043051;28;20059;-82
2023/06/13 09:40:54;;;;;;;4.53;3.30;;;25.40;99.90;;;;;;5040596;28;20085;-82
2023/06/13 09:43:20;;;;;;;3.55;2.65;;;25.50;99.90;;;;;;5054490;28;20041;-82
2023/06/13 09:45:48;;;;;;;6.82;3.78;;;25.80;99.90;;;;;;5041189;28;20035;-82
2023/06/13 09:48:14;;;;;;;4.50;3.03;;;25.70;99.90;;;;;;5052142;28;20044;-82
2023/06/13 09:50:40;;;;;;;5.38;3.15;;;25.70;99.90;;;;;;5054984;28;20259;-82
2023/06/13 09:53:09;;;;;;;5.10;3.03;;;25.50;99.90;;;;;;5053754;28;20115;-82
2023/06/13 09:55:36;;;;;;;6.28;3.03;;;25.80;99.90;;;;;;5062775;28;20462;-82
2023/06/13 09:58:03;;;;;;;5.75;3.05;;;25.70;99.90;;;;;;5055998;28;20484;-83
2023/06/13 10:00:29;;;;;;;4.57;3.00;;;26.00;99.90;;;;;;5055521;28;20040;-82
2023/06/13 10:02:56;;;;;;;5.07;3.10;;;25.60;99.90;;;;;;5058886;28;20062;-82
2023/06/13 10:05:22;;;;;;;3.95;2.75;;;26.20;99.90;;;;;;5057455;28;20060;-82
2023/06/13 10:07:48;;;;;;;4.68;2.58;;;26.20;99.90;;;;;;5057793;28;20059;-83
2023/06/13 10:10:14;;;;;;;4.18;2.80;;;26.10;99.90;;;;;;5061577;28;20055;-83
2023/06/13 10:12:55;;;;;;;3.65;2.72;;;26.30;99.90;;;;;;5060960;28;20086;-82
2023/06/13 10:15:37;;;;;;;5.25;2.90;;;26.30;99.90;;;;;;5054075;28;20036;-83
2023/06/13 10:18:11;;;;;;;4.68;3.20;;;26.60;99.90;;;;;;5055087;28;20571;-82
2023/06/13 10:20:38;;;;;;;3.15;2.83;;;26.50;99.90;;;;;;5053821;28;20036;-82
2023/06/13 10:23:10;;;;;;;3.83;3.10;;;26.40;99.00;;;;;;5074556;28;20031;-83
2023/06/13 10:25:37;;;;;;;4.65;3.08;;;26.20;99.90;;;;;;5039629;28;20744;-82
2023/06/13 10:28:41;;;;;;;5.22;2.97;;;26.30;99.40;;;;;;5051840;28;20044;-82
2023/06/13 10:31:43;;;;;;;7.38;2.80;;;26.60;99.90;;;;;;5035385;28;20044;-83
2023/06/13 10:34:24;;;;;;;3.70;2.83;;;26.70;99.90;;;;;;5044297;28;20458;-83
2023/06/13 10:37:39;;;;;;;4.20;2.58;;;26.70;99.90;;;;;;5041275;28;20040;-82
2023/06/13 10:40:10;;;;;;;7.22;3.20;;;26.80;99.90;;;;;;5035603;28;20207;-82
2023/06/13 10:42:48;;;;;;;5.43;2.63;;;26.20;91.10;;;;;;5041815;28;20066;-82
2023/06/13 10:45:19;;;;;;;4.60;2.67;;;26.60;94.90;;;;;;5045300;28;20043;-82
2023/06/13 10:47:45;;;;;;;3.28;2.70;;;26.80;94.60;;;;;;5039669;28;20040;-82
2023/06/13 10:50:14;;;;;;;3.10;2.78;;;26.70;92.60;;;;;;5039419;28;20053;-82
2023/06/13 10:52:45;;;;;;;5.45;3.20;;;26.90;94.10;;;;;;5034722;28;20060;-82
2023/06/13 10:55:25;;;;;;;6.05;2.67;;;26.50;96.10;;;;;;5038174;28;20109;-83
2023/06/13 10:57:53;;;;;;;12.57;2.92;;;26.90;98.20;;;;;;5037694;28;20114;-82
2023/06/13 11:00:35;;;;;;;7.18;2.92;;;27.20;94.80;;;;;;5050948;28;20474;-83
2023/06/13 11:03:11;;;;;;;5.93;3.08;;;27.10;95.40;;;;;;5034464;28;20049;-82
2023/06/13 11:05:50;;;;;;;3.45;3.00;;;27.10;89.20;;;;;;5043947;28;20040;-82
2023/06/13 11:08:26;;;;;;;5.30;2.88;;;26.90;88.20;;;;;;5041639;28;20040;-82
2023/06/13 11:10:55;;;;;;;3.47;2.85;;;27.00;89.00;;;;;;5056316;28;20498;-82
2023/06/13 11:13:27;;;;;;;5.78;3.00;;;27.40;95.10;;;;;;5053828;28;20115;-83
2023/06/13 11:15:57;;;;;;;8.27;2.95;;;27.40;92.10;;;;;;5051358;28;20076;-82
2023/06/13 11:18:28;;;;;;;3.53;2.80;;;27.50;97.20;;;;;;5043954;28;20100;-82
2023/06/13 11:20:59;;;;;;;5.47;2.80;;;27.80;93.90;;;;;;5042731;28;20048;-82
2023/06/13 11:23:37;;;;;;;4.35;2.90;;;27.90;94.30;;;;;;5054294;28;20108;-82
2023/06/13 11:26:04;;;;;;;5.07;2.80;;;27.50;90.50;;;;;;5053245;28;20086;-83
2023/06/13 11:28:33;;;;;;;4.68;3.10;;;27.80;95.40;;;;;;5060015;28;20048;-82
2023/06/13 11:31:04;;;;;;;3.25;2.80;;;27.80;93.60;;;;;;5051953;28;20077;-82
2023/06/13 11:33:37;;;;;;;4.85;2.65;;;27.70;93.40;;;;;;5053687;28;20049;-83
2023/06/13 11:36:03;;;;;;;5.90;3.05;;;28.00;95.20;;;;;;5041485;28;20091;-82
2023/06/13 11:38:54;;;;;;;4.07;2.83;;;28.20;96.00;;;;;;5051042;28;20055;-82
2023/06/13 11:41:21;;;;;;;3.85;2.67;;;28.20;97.80;;;;;;5059882;28;20068;-83
2023/06/13 11:43:47;;;;;;;6.40;2.92;;;28.60;99.90;;;;;;5053507;28;20569;-82
2023/06/13 11:46:13;;;;;;;3.83;2.88;;;28.60;99.90;;;;;;5038859;28;20432;-82
2023/06/13 11:48:39;;;;;;;4.40;2.47;;;28.60;98.90;;;;;;5041766;28;20094;-83
2023/06/13 11:51:15;;;;;;;5.47;2.67;;;28.30;93.40;;;;;;5042856;28;20044;-83
2023/06/13 11:53:48;;;;;;;4.63;2.67;;;27.60;78.70;;;;;;5044169;28;20051;-82
2023/06/13 11:56:15;;;;;;;5.20;2.80;;;27.40;78.80;;;;;;5044126;28;20044;-82
2023/06/13 11:58:41;;;;;;;5.90;2.58;;;27.70;88.80;;;;;;5042280;28;20086;-82
2023/06/13 12:01:07;;;;;;;3.95;2.70;;;28.10;92.90;;;;;;5054001;28;20889;-82
2023/06/13 12:03:38;;;;;;;3.95;2.92;;;28.40;92.80;;;;;;5056047;28;20072;-83
2023/06/13 12:06:06;;;;;;;3.92;2.58;;;28.20;89.30;;;;;;5036971;28;20047;-83
2023/06/13 12:08:36;;;;;;;4.38;2.65;;;27.90;81.90;;;;;;5039338;28;20036;-83
2023/06/13 12:11:05;;;;;;;3.40;2.83;;;28.00;76.90;;;;;;5042345;28;20351;-83
2023/06/13 12:13:33;;;;;;;6.32;2.75;;;28.00;81.80;;;;;;5037215;28;20052;-83
2023/06/13 12:16:03;;;;;;;4.93;2.70;;;27.50;61.50;;;;;;5054239;28;20079;-83
2023/06/13 12:18:28;;;;;;;3.17;2.75;;;28.20;81.30;;;;;;5053855;28;20405;-83
2023/06/13 12:20:56;;;;;;;4.15;3.03;;;28.40;82.20;;;;;;5038406;28;20036;-83
2023/06/13 12:23:23;;;;;;;6.45;2.95;;;28.30;73.90;;;;;;5042510;28;20040;-83
2023/06/13 12:25:50;;;;;;;4.43;2.70;;;28.50;73.50;;;;;;5039962;28;20037;-83
2023/06/13 12:28:19;;;;;;;3.53;2.42;;;28.50;79.80;;;;;;5039067;28;20045;-83
2023/06/13 12:30:49;;;;;;;3.72;2.83;;;28.70;74.80;;;;;;5037004;28;20043;-83
2023/06/13 12:33:19;;;;;;;4.50;3.00;;;28.90;79.50;;;;;;5058937;28;20195;-83
2023/06/13 12:35:52;;;;;;;4.22;2.90;;;27.90;56.10;;;;;;5055003;28;20079;-83
2023/06/13 12:38:27;;;;;;;6.80;2.80;;;28.30;56.50;;;;;;5051093;28;20070;-83
2023/06/13 12:40:52;;;;;;;4.18;3.05;;;29.10;76.30;;;;;;5051565;28;20052;-82
2023/06/13 12:43:29;;;;;;;4.30;2.55;;;29.40;76.30;;;;;;5041998;28;20032;-83
2023/06/13 12:45:58;;;;;;;4.07;2.63;;;29.40;70.50;;;;;;5042038;28;20445;-83
2023/06/13 12:48:26;;;;;;;4.50;3.05;;;29.30;76.60;;;;;;5034393;28;20041;-82
2023/06/13 12:50:54;;;;;;;4.75;2.60;;;29.30;73.40;;;;;;5061082;28;20558;-83
2023/06/13 12:53:23;;;;;;;6.20;2.42;;;29.60;78.00;;;;;;5038995;28;20328;-83